createdAt,value
2019-02-20T00:02:33.400Z,79.81
2019-02-20T00:07:28.008Z,80.16
2019-02-20T00:12:22.586Z,80.56
2019-02-20T00:17:17.179Z,81.06
2019-02-20T00:22:11.771Z,81.90
2019-02-20T00:27:06.333Z,82.34
2019-02-20T00:32:00.929Z,82.54
2019-02-20T00:36:55.507Z,83.38
2019-02-20T00:41:50.102Z,83.70
2019-02-20T00:46:46.342Z,83.99
2019-02-20T00:51:42.579Z,84.11
2019-02-20T00:56:37.150Z,84.09
2019-02-20T01:01:31.814Z,84.07
2019-02-20T01:06:26.387Z,83.72
2019-02-20T01:11:21.053Z,83.04
2019-02-20T01:16:15.663Z,82.99
2019-02-20T01:21:10.250Z,82.97
2019-02-20T01:26:04.818Z,82.49
2019-02-20T01:30:59.413Z,83.72
2019-02-20T01:35:53.985Z,84.30
2019-02-20T01:40:48.575Z,84.69
2019-02-20T01:45:43.147Z,86.24
2019-02-20T01:50:37.743Z,86.56
2019-02-20T01:55:32.325Z,86.86
2019-02-20T02:00:26.992Z,86.29
2019-02-20T02:05:21.562Z,87.22
2019-02-20T02:10:16.174Z,88.19
2019-02-20T02:15:20.064Z,88.40
2019-02-20T02:20:10.083Z,88.19
2019-02-20T02:25:05.956Z,88.22
2019-02-20T02:30:00.558Z,89.26
2019-02-20T02:34:55.138Z,88.98
2019-02-20T02:39:49.731Z,87.74
2019-02-20T02:44:44.312Z,87.11
2019-02-20T02:49:38.897Z,87.70
2019-02-20T02:54:33.476Z,87.74
2019-02-20T02:59:28.085Z,88.84
2019-02-20T03:04:22.739Z,89.02
2019-02-20T03:09:17.321Z,88.98
2019-02-20T03:14:11.894Z,89.32
2019-02-20T03:19:06.517Z,88.96
2019-02-20T03:24:01.081Z,87.80
2019-02-20T03:28:55.680Z,87.46
2019-02-20T03:33:50.335Z,87.21
2019-02-20T03:38:44.942Z,86.67
2019-02-20T03:43:39.513Z,86.22
2019-02-20T03:48:34.121Z,86.62
2019-02-20T03:53:28.703Z,87.41
2019-02-20T03:58:23.439Z,88.75
2019-02-20T04:03:18.012Z,89.43
2019-02-20T04:08:12.607Z,89.23
2019-02-20T04:13:07.196Z,89.53
2019-02-20T04:18:01.777Z,88.49
2019-02-20T04:22:56.339Z,88.66
2019-02-20T04:27:50.934Z,88.77
2019-02-20T04:32:45.503Z,88.06
2019-02-20T04:37:40.098Z,86.90
2019-02-20T04:42:34.678Z,87.98
2019-02-20T04:47:29.291Z,87.91
2019-02-20T04:52:23.935Z,87.55
2019-02-20T04:57:18.531Z,86.94
2019-02-20T05:02:13.105Z,87.23
2019-02-20T05:07:07.720Z,87.06
2019-02-20T05:12:02.285Z,85.80
2019-02-20T05:16:56.957Z,86.77
2019-02-20T05:21:51.525Z,88.04
2019-02-20T05:26:46.108Z,88.42
2019-02-20T05:31:40.680Z,86.35
2019-02-20T05:36:35.268Z,86.05
2019-02-20T05:41:29.871Z,85.88
2019-02-20T05:46:24.461Z,86.17
2019-02-20T05:51:19.036Z,86.29
2019-02-20T05:56:13.625Z,87.66
2019-02-20T06:01:08.297Z,88.07
2019-02-20T06:06:03.031Z,87.13
2019-02-20T06:11:00.500Z,88.24
2019-02-20T06:15:55.105Z,89.63
2019-02-20T06:20:49.686Z,89.14
2019-02-20T06:25:44.297Z,88.23
2019-02-20T06:30:38.990Z,88.12
2019-02-20T06:35:33.617Z,88.77
2019-02-20T06:40:28.197Z,88.43
2019-02-20T06:45:22.775Z,87.61
2019-02-20T06:50:17.462Z,86.61
2019-02-20T06:55:13.343Z,86.11
2019-02-20T07:00:12.200Z,85.69
2019-02-20T07:05:30.523Z,85.74
2019-02-20T07:10:38.292Z,85.45
2019-02-20T07:15:55.102Z,85.14
2019-02-20T07:21:15.149Z,84.45
2019-02-20T07:26:38.311Z,84.93
2019-02-20T07:31:32.951Z,85.22
2019-02-20T07:36:27.541Z,84.31
2019-02-20T07:41:22.139Z,84.32
2019-02-20T07:46:16.760Z,83.27
2019-02-20T07:51:11.360Z,83.45
2019-02-20T07:56:06.249Z,82.81
2019-02-20T08:01:00.851Z,82.52
2019-02-20T08:05:55.562Z,82.63
2019-02-20T08:10:50.159Z,82.69
2019-02-20T08:15:44.737Z,82.28
2019-02-20T08:20:39.595Z,81.17
2019-02-20T08:25:34.316Z,80.42
2019-02-20T08:30:29.154Z,82.25
2019-02-20T08:35:23.742Z,77.18
2019-02-20T08:40:20.347Z,76.17
2019-02-20T08:45:17.876Z,74.17
2019-02-20T08:50:14.106Z,74.00
2019-02-20T08:55:10.826Z,73.64
2019-02-20T09:00:12.564Z,73.05
2019-02-20T09:05:10.761Z,72.41
2019-02-20T09:10:09.875Z,71.36
2019-02-20T09:15:05.976Z,71.54
2019-02-20T09:20:00.727Z,71.25
2019-02-20T09:24:56.026Z,71.14
2019-02-20T09:29:58.355Z,70.15
2019-02-20T09:35:09.393Z,69.75
2019-02-20T09:40:16.077Z,69.24
2019-02-20T09:45:22.438Z,68.79
2019-02-20T09:50:17.031Z,68.81
2019-02-20T09:55:15.644Z,68.75
2019-02-20T10:00:17.027Z,68.72
2019-02-20T10:05:12.610Z,68.28
2019-02-20T10:10:11.247Z,68.27
2019-02-20T10:15:13.481Z,66.89
2019-02-20T10:20:10.949Z,67.50
2019-02-20T10:25:08.514Z,67.95
2019-02-20T10:30:18.949Z,67.01
2019-02-20T10:35:12.671Z,66.56
2019-02-20T10:40:10.247Z,65.76
2019-02-20T10:45:17.920Z,65.47
2019-02-20T10:50:14.650Z,64.70
2019-02-20T10:55:11.098Z,64.59
2019-02-20T11:00:23.488Z,64.78
2019-02-20T11:05:13.494Z,64.49
2019-02-20T11:10:09.704Z,64.10
2019-02-20T11:15:05.977Z,63.84
2019-02-20T11:20:06.553Z,63.84
2019-02-20T11:25:01.440Z,64.64
2019-02-20T11:29:56.041Z,63.96
2019-02-20T11:34:50.656Z,64.31
2019-02-20T11:39:45.269Z,63.04
2019-02-20T11:44:39.869Z,62.72
2019-02-20T11:49:41.072Z,62.53
2019-02-20T11:54:40.250Z,61.73
2019-02-20T11:59:35.128Z,60.47
2019-02-20T12:04:29.782Z,60.58
2019-02-20T12:09:24.451Z,59.61
2019-02-20T12:14:19.121Z,58.80
2019-02-20T12:19:13.866Z,57.81
2019-02-20T12:24:11.763Z,57.37
2019-02-20T12:29:08.089Z,56.60
2019-02-20T12:34:02.836Z,56.45
2019-02-20T12:38:57.440Z,56.21
2019-02-20T12:43:52.038Z,55.54
2019-02-20T12:48:47.466Z,54.74
2019-02-20T12:53:43.611Z,55.57
2019-02-20T12:58:39.338Z,55.43
2019-02-20T13:03:33.935Z,55.56
2019-02-20T13:08:28.735Z,55.04
2019-02-20T13:13:23.343Z,54.61
2019-02-20T13:18:17.992Z,53.95
2019-02-20T13:23:12.672Z,53.57
2019-02-20T13:28:07.385Z,53.46
2019-02-20T13:33:08.034Z,53.93
2019-02-20T13:38:02.810Z,53.87
2019-02-20T13:42:57.780Z,54.76
2019-02-20T13:47:53.071Z,56.46
2019-02-20T13:52:52.457Z,55.87
2019-02-20T13:57:44.406Z,55.18
2019-02-20T14:02:39.022Z,53.95
2019-02-20T14:07:33.627Z,53.94
2019-02-20T14:12:29.439Z,55.73
2019-02-20T14:17:26.734Z,55.44
2019-02-20T14:22:20.816Z,55.47
2019-02-20T14:27:17.251Z,55.51
2019-02-20T14:32:11.984Z,55.54
2019-02-20T14:37:06.693Z,56.16
2019-02-20T14:42:01.296Z,57.04
2019-02-20T14:46:56.099Z,57.69
2019-02-20T14:51:50.807Z,58.60
2019-02-20T14:56:45.512Z,57.56
2019-02-20T15:01:40.309Z,57.62
2019-02-20T15:06:35.194Z,57.80
2019-02-20T15:11:29.826Z,57.27
2019-02-20T15:16:24.456Z,57.09
2019-02-20T15:21:19.076Z,57.53
2019-02-20T15:26:14.443Z,58.11
2019-02-20T15:31:09.196Z,58.70
2019-02-20T15:36:03.868Z,58.85
2019-02-20T15:40:58.489Z,58.92
2019-02-20T15:45:53.112Z,58.84
2019-02-20T15:50:47.799Z,59.15
2019-02-20T15:55:42.401Z,59.52
2019-02-20T16:00:37.176Z,59.86
2019-02-20T16:05:33.068Z,60.73
2019-02-20T16:10:27.972Z,61.52
2019-02-20T16:15:24.240Z,61.97
2019-02-20T16:20:19.029Z,62.57
2019-02-20T16:25:16.167Z,62.86
2019-02-20T16:30:13.926Z,63.37
2019-02-20T16:35:11.033Z,64.41
2019-02-20T16:40:09.587Z,65.32
2019-02-20T16:45:05.001Z,66.30
2019-02-20T16:49:59.631Z,67.11
2019-02-20T16:54:55.098Z,67.96
2019-02-20T16:59:49.855Z,68.72
2019-02-20T17:04:44.452Z,69.42
2019-02-20T17:09:39.062Z,70.13
2019-02-20T17:14:33.837Z,70.75
2019-02-20T17:19:28.434Z,71.37
2019-02-20T17:24:23.037Z,71.94
2019-02-20T17:29:17.615Z,72.54
2019-02-20T17:34:12.198Z,73.03
2019-02-20T17:39:08.053Z,73.39
2019-02-20T17:44:02.626Z,73.64
2019-02-20T17:48:57.247Z,74.18
2019-02-20T17:53:51.819Z,74.56
2019-02-20T17:58:46.422Z,74.70
2019-02-20T18:03:41.181Z,74.75
2019-02-20T18:08:35.774Z,75.16
2019-02-20T18:13:30.345Z,75.65
2019-02-20T18:18:25.402Z,76.36
2019-02-20T18:23:19.975Z,76.89
2019-02-20T18:28:22.223Z,77.61
2019-02-20T18:33:10.894Z,78.22
2019-02-20T18:38:05.495Z,78.39
2019-02-20T18:43:00.111Z,78.50
2019-02-20T18:47:54.753Z,78.65
2019-02-20T18:52:49.332Z,78.80
2019-02-20T18:57:43.994Z,79.12
2019-02-20T19:02:38.584Z,79.96
2019-02-20T19:07:33.171Z,80.75
2019-02-20T19:12:35.344Z,80.84
2019-02-20T19:17:46.088Z,80.93
2019-02-20T19:23:09.434Z,80.66
2019-02-20T19:28:20.479Z,80.50
2019-02-20T19:33:51.273Z,80.05
2019-02-20T19:38:55.942Z,79.54
2019-02-20T19:44:23.538Z,80.09
2019-02-20T19:49:43.851Z,80.90
2019-02-20T19:54:45.827Z,81.32
2019-02-20T20:00:04.169Z,81.52
2019-02-20T20:05:36.378Z,81.19
2019-02-20T20:11:10.052Z,81.75
2019-02-20T20:16:31.512Z,81.88
2019-02-20T20:21:54.609Z,82.15
2019-02-20T20:27:17.688Z,82.17
2019-02-20T20:32:53.791Z,82.71
2019-02-20T20:38:10.240Z,82.50
2019-02-20T20:43:27.446Z,83.06
2019-02-20T20:48:43.021Z,83.48
2019-02-20T20:54:04.911Z,83.90
2019-02-20T20:59:21.885Z,83.86
2019-02-20T21:04:52.842Z,84.02
2019-02-20T21:09:57.653Z,84.11
2019-02-20T21:15:02.894Z,83.94
2019-02-20T21:20:29.579Z,83.24
2019-02-20T21:25:43.447Z,83.66
2019-02-20T21:31:17.232Z,83.73
2019-02-20T21:36:21.989Z,84.30
2019-02-20T21:41:26.971Z,84.96
2019-02-20T21:46:37.856Z,84.95
2019-02-20T21:51:45.457Z,85.10
2019-02-20T21:56:47.054Z,85.66
2019-02-20T22:01:58.232Z,85.93
2019-02-20T22:07:25.912Z,85.60
2019-02-20T22:13:07.418Z,86.00
2019-02-20T22:18:18.269Z,86.36
2019-02-20T22:23:29.433Z,86.40
2019-02-20T22:28:43.402Z,86.19
2019-02-20T22:34:05.117Z,85.69
2019-02-20T22:39:19.203Z,86.09
2019-02-20T22:44:49.890Z,85.44
2019-02-20T22:49:51.738Z,85.62
2019-02-20T22:55:05.259Z,85.78
2019-02-20T23:00:13.284Z,85.60
2019-02-20T23:05:43.859Z,85.52
2019-02-20T23:11:00.706Z,86.56
2019-02-20T23:15:55.285Z,86.20
2019-02-20T23:20:49.889Z,87.22
2019-02-20T23:25:44.468Z,86.87
2019-02-20T23:30:39.083Z,86.74
2019-02-20T23:35:33.655Z,86.63
2019-02-20T23:40:28.257Z,85.83
2019-02-20T23:45:22.908Z,85.70
2019-02-20T23:50:17.579Z,86.22
2019-02-20T23:55:12.227Z,86.10
